• Join FlightAware (Why Join?)
  • Login
  • US Flag 
07:19PM EST


 

Airport Tracker/Info


-or-


 

Live Flight TrackerFlight Track Log ✈ QJE1949 ✈ 24-Sep-2013 ✈ YBCS / CNS - YBAS / ASP

Flight Track Log - Related Links

Times and Time Zones

All times are in EDT time to prevent confusion due to time zone crossing. See the QJE1949 flight status page for this flight to view local times or setup timezone preferences in your user account.

Time Position Orientation Groundspeed Altitude Reporting Facility
EDT Latitude Longitude Course Direction KTS MPH feet Rate Location/Type
09:46PM -16.8443 145.7326 346° North 165 190 1,900  Level Aus ATC (RADAR)
09:46PM -16.8420 145.7320 339° North 162 186 1,800 900 Descending FlightAware
09:47PM -16.8290 145.7266 339° North 173 199 2,200 780 Climbing Aus ATC (RADAR)
09:47PM -16.8310 145.7280 341° North 184 212 2,000 1,140 Descending FlightAware
09:47PM -16.8110 145.7350 19° North 211 243 2,600 1,680 Climbing FlightAware
09:47PM -16.8000 145.7470 46° Northeast 227 261 3,100 2,460 Climbing FlightAware
09:48PM -16.7830 145.7590 34° Northeast 227 261 4,100 3,180 Climbing FlightAware
09:48PM -16.7710 145.7620 13° North 230 265 4,700 2,220 Climbing FlightAware
09:48PM -16.7470 145.7560 347° North 259 298 5,300 1,680 Climbing FlightAware
09:48PM -16.7300 145.7490 338° Northwest 279 321 5,700 1,500 Climbing FlightAware
09:48PM -16.7240 145.7460 334° Northwest 290 334 5,800 1,200 Climbing FlightAware
09:49PM -16.7140 145.7360 316° Northwest 301 346 6,000 1,560 Climbing FlightAware
09:49PM -16.7100 145.7300 305° West 303 349 6,200 2,760 Climbing FlightAware
09:49PM -16.7050 145.7160 290° West 298 343 6,700 3,180 Climbing FlightAware
09:49PM -16.7040 145.7090 278° West 295 339 7,000 3,060 Climbing FlightAware
09:49PM -16.7100 145.6800 258° West 285 328 8,100 3,000 Climbing FlightAware
09:49PM -16.7160 145.6670 244° Southwest 279 321 8,600 2,220 Climbing FlightAware
09:50PM -16.7320 145.6460 231° Southwest 289 333 9,200 1,980 Climbing FlightAware
09:50PM -16.7480 145.6230 234° Southwest 301 346 9,900 1,740 Climbing FlightAware
09:51PM -16.7740 145.5840 235° Southwest 324 373 10,700 1,620 Climbing FlightAware
09:51PM -16.8003 145.5433 235° Southwest 334 384 11,600 1,500 Climbing Aus ATC (RADAR)
09:51PM -16.8100 145.5300 235° Southwest 354 407 11,700 1,320 Climbing FlightAware
09:52PM -16.8440 145.4790 235° Southwest 371 427 12,600 1,620 Climbing FlightAware
09:52PM -16.8790 145.4270 235° Southwest 389 448 13,600 1,200 Climbing FlightAware
09:53PM -16.9230 145.3620 235° Southwest 415 478 14,100 1,140 Climbing FlightAware
09:54PM -16.9620 145.3030 235° Southwest 417 480 15,100 1,620 Climbing FlightAware
09:54PM -17.0010 145.2460 234° Southwest 425 489 16,000 1,920 Climbing FlightAware
09:55PM -17.0410 145.1870 235° Southwest 410 472 17,400 1,920 Climbing FlightAware
09:55PM -17.0790 145.1300 235° Southwest 413 475 18,300 1,500 Climbing FlightAware
09:56PM -17.1220 145.0670 234° Southwest 418 481 19,300 1,440 Climbing FlightAware
09:57PM -17.1549 145.0160 234° Southwest 415 478 20,000 1,320 Climbing Aus ATC (RADAR)
09:57PM -17.1570 145.0140 234° Southwest 424 488 20,000 1,320 Level FlightAware
09:57PM -17.1945 144.9568 234° Southwest 423 487 20,800 1,380 Climbing Aus ATC (RADAR)
09:57PM -17.1940 144.9580 234° Southwest 426 490 20,800 1,140 Level FlightAware
09:58PM -17.2450 144.8830 235° Southwest 427 491 21,700 1,080 Climbing FlightAware
09:58PM -17.2830 144.8270 235° Southwest 433 498 22,200 1,080 Climbing FlightAware
09:59PM -17.3290 144.7580 235° Southwest 434 499 23,000 1,200 Climbing FlightAware
10:00PM -17.3690 144.6970 236° Southwest 434 499 23,700 960 Climbing FlightAware
10:00PM -17.4020 144.6490 234° Southwest 439 505 24,100 720 Climbing FlightAware
10:01PM -17.4450 144.5840 235° Southwest 443 510 24,500 780 Climbing FlightAware
10:01PM -17.4800 144.5310 235° Southwest 443 510 25,000 600 Climbing FlightAware
10:02PM -17.5220 144.4680 235° Southwest 449 517 25,200 300 Climbing FlightAware
10:03PM -17.5650 144.4030 235° Southwest 457 526 25,400 300 Climbing FlightAware
10:03PM -17.6060 144.3430 234° Southwest 461 531 25,600 600 Climbing FlightAware
10:04PM -17.6490 144.2780 235° Southwest 457 526 26,100 840 Climbing FlightAware
10:04PM -17.6920 144.2130 235° Southwest 454 522 26,600 840 Climbing FlightAware
10:05PM -17.7300 144.1560 235° Southwest 451 519 27,100 900 Climbing FlightAware
10:05PM -17.7690 144.0970 235° Southwest 445 512 27,600 1,320 Climbing FlightAware
10:05PM -17.7700 144.0932 235° Southwest 445 512 27,800 900 Climbing Aus ATC (RADAR)
10:06PM -17.8160 144.0250 236° Southwest 444 511 28,200 720 Climbing FlightAware
10:07PM -17.8570 143.9640 235° Southwest 441 507 28,700 900 Climbing FlightAware
10:07PM -17.8923 143.9083 235° Southwest 438 504 29,200 660 Climbing Aus ATC (RADAR)
10:07PM -17.8930 143.9090 235° Southwest 441 507 29,100 780 Descending FlightAware
10:08PM -17.9328 143.8466 235° Southwest 439 505 29,700 1,020 Climbing Aus ATC (RADAR)
10:08PM -17.9440 143.8320 235° Southwest 441 507 29,800 1,320 Climbing FlightAware
10:09PM -17.9890 143.7630 236° Southwest 426 490 30,800 1,200 Climbing FlightAware
10:09PM -18.0170 143.7210 235° Southwest 428 493 31,100 420 Climbing FlightAware
10:10PM -18.0560 143.6630 235° Southwest 426 490 31,300 780 Climbing FlightAware
10:10PM -18.1012 143.5914 235° Southwest 420 483 32,100 1,020 Climbing Aus ATC (RADAR)
10:10PM -18.1040 143.5890 235° Southwest 422 486 32,000 -180 Descending FlightAware
10:11PM -18.1040 143.5890 235° Southwest 423 487 32,000 60 Level FlightAware
10:12PM -18.1956 143.4480 235° Southwest 420 483 32,100  Climbing Aus ATC (RADAR)
10:12PM -18.1430 143.5300 235° Southwest 423 487 32,000 -180 Descending FlightAware
10:12PM -18.1780 143.4780 235° Southwest 423 487 32,000  Level FlightAware
10:13PM -18.2130 143.4250 235° Southwest 423 487 32,000  Level FlightAware
10:13PM -18.2470 143.3740 235° Southwest 423 487 32,000  Level FlightAware
10:14PM -18.2820 143.3220 235° Southwest 423 487 32,000  Level FlightAware
10:15PM -18.3170 143.2690 235° Southwest 423 487 32,000  Level FlightAware
10:15PM -18.3510 143.2170 235° Southwest 423 487 32,000  Level FlightAware
10:16PM -18.3860 143.1650 235° Southwest 423 487 32,000  Level FlightAware
10:16PM -18.4200 143.1140 235° Southwest 423 487 32,000  Level FlightAware
10:17PM -18.4540 143.0620 235° Southwest 423 487 32,000  Level FlightAware
10:18PM -18.4890 143.0100 235° Southwest 423 487 32,000  Level FlightAware
10:18PM -18.5240 142.9570 235° Southwest 423 487 32,000  Level FlightAware
10:19PM -18.5580 142.9050 235° Southwest 423 487 32,000  Level FlightAware
10:19PM -18.5930 142.8540 234° Southwest 423 487 32,000  Level FlightAware
10:20PM -18.6270 142.8020 235° Southwest 423 487 32,000  Level FlightAware
10:21PM -18.6610 142.7500 235° Southwest 423 487 32,000  Level FlightAware
10:22PM -18.8696 142.3923 235° Southwest 425 489 32,100 60 Climbing Aus ATC (RADAR)
10:22PM -18.8906 142.3571 238° Southwest 426 490 32,100  Level Aus ATC (RADAR)
10:23PM -18.9334 142.2873 237° Southwest 425 489 32,100  Level Aus ATC (RADAR)
10:23PM -18.9708 142.2261 237° Southwest 426 490 32,100 -120 Level Aus ATC (RADAR)
10:24PM -19.0142 142.1573 236° Southwest 424 488 32,000 -120 Descending Aus ATC (RADAR)
10:25PM -19.0632 142.0801 236° Southwest 423 487 32,000  Level Aus ATC (RADAR)
10:25PM -19.0840 142.0448 238° Southwest 424 488 32,000 -360 Level Aus ATC (RADAR)
10:26PM -19.1367 141.9579 237° Southwest 423 487 31,600  Descending Aus ATC (RADAR)
10:27PM -19.2400 141.8070 237° Southwest 421 484 32,000 180 Climbing FlightAware
10:28PM -19.2790 141.7440 237° Southwest 421 484 32,000  Level FlightAware
10:29PM -19.3180 141.6820 236° Southwest 420 483 32,000  Level FlightAware
10:29PM -19.3560 141.6210 237° Southwest 420 483 32,000  Level FlightAware
10:30PM -19.3900 141.5670 236° Southwest 420 483 32,000  Level FlightAware
10:30PM -19.4300 141.5040 236° Southwest 419 482 32,000  Level FlightAware
10:31PM -19.4736 141.4237 72° East 32,000  Level Aus ATC (Calculated)
10:31PM -19.4680 141.4420 237° Southwest 418 481 32,000  Level FlightAware
10:32PM -19.5020 141.3880 236° Southwest 417 480 32,000  Level FlightAware
10:32PM -19.5420 141.3230 236° Southwest 417 480 32,000  Level FlightAware
10:33PM -19.5710 141.2760 237° Southwest 417 480 32,000  Level FlightAware
10:33PM -19.6030 141.2240 237° Southwest 417 480 32,000  Level FlightAware
10:34PM -19.6400 141.1660 236° Southwest 417 480 32,000  Level FlightAware
10:34PM -19.6820 141.0980 237° Southwest 416 479 32,000  Level FlightAware
10:35PM -19.7190 141.0370 237° Southwest 416 479 32,000  Level FlightAware
10:36PM -19.7550 140.9780 237° Southwest 415 478 32,000  Level FlightAware
10:36PM -19.7930 140.9170 236° Southwest 414 476 32,000  Level FlightAware
10:37PM -19.8336 140.8475 77° East 32,000  Level Aus ATC (Calculated)
10:37PM -19.8320 140.8550 236° Southwest 414 476 32,000  Level FlightAware
10:37PM -19.8650 140.8010 236° Southwest 414 476 32,000  Level FlightAware
10:38PM -19.9020 140.7400 237° Southwest 414 476 32,000  Level FlightAware
10:39PM -19.9420 140.6750 237° Southwest 413 475 32,000  Level FlightAware
10:39PM -19.9760 140.6190 237° Southwest 414 476 32,000  Level FlightAware
10:40PM -20.0140 140.5580 236° Southwest 414 476 32,000  Level FlightAware
10:40PM -20.0510 140.4970 237° Southwest 413 475 32,000  Level FlightAware
10:41PM -20.0850 140.4420 237° Southwest 414 476 32,000  Level FlightAware
10:41PM -20.1302 140.3651 64° Northeast 34,000  Climbing Aus ATC (Calculated)
10:41PM -20.1230 140.3810 236° Southwest 415 478 32,000 -2,880 Descending FlightAware
10:42PM -20.1600 140.3200 236° Southwest 415 478 32,000  Level FlightAware
10:43PM -20.1970 140.2580 238° Southwest 414 476 32,000  Level FlightAware
10:43PM -20.2310 140.2030 237° Southwest 414 476 32,000  Level FlightAware
10:44PM -20.2690 140.1410 237° Southwest 415 478 32,000  Level FlightAware
10:44PM -20.3060 140.0800 237° Southwest 415 478 32,000  Level FlightAware
10:45PM -20.3440 140.0180 237° Southwest 414 476 32,000  Level FlightAware
10:45PM -20.3770 139.9630 237° Southwest 414 476 32,000  Level FlightAware
10:46PM -20.4140 139.9010 238° Southwest 413 475 32,000  Level FlightAware
10:47PM -20.4510 139.8400 237° Southwest 411 473 32,000  Level FlightAware
10:47PM -20.5148 139.7337 58° Northeast 34,000  Climbing Aus ATC (Calculated)
10:47PM -20.4890 139.7780 237° Southwest 409 471 32,000 -1,800 Descending FlightAware
10:48PM -20.5210 139.7250 237° Southwest 409 471 32,000  Level FlightAware
10:48PM -20.5580 139.6630 237° Southwest 409 471 32,000  Level FlightAware
10:49PM -20.6272 139.5478 57° Northeast 34,000  Climbing Aus ATC (Calculated)
10:49PM -20.5940 139.6030 237° Southwest 409 471 32,000 -1,920 Descending FlightAware
10:50PM -20.6320 139.5410 237° Southwest 411 473 32,000  Level FlightAware
10:50PM -20.6640 139.4870 238° Southwest 411 473 32,000  Level FlightAware
10:50PM -20.7228 139.3868 59° Northeast 34,000  Climbing Aus ATC (Calculated)
10:51PM -20.7010 139.4250 238° Southwest 411 473 32,000 -1,800 Descending FlightAware
10:51PM -20.7370 139.3620 239° Southwest 412 474 32,000  Level FlightAware
10:52PM -20.7730 139.3010 238° Southwest 410 472 32,000  Level FlightAware
10:52PM -20.8060 139.2450 238° Southwest 409 471 32,000  Level FlightAware
10:53PM -20.8420 139.1830 238° Southwest 408 470 32,000  Level FlightAware
10:54PM -20.8780 139.1220 238° Southwest 407 468 32,000  Level FlightAware
10:54PM -20.9140 139.0600 238° Southwest 406 467 32,000  Level FlightAware
10:55PM -20.9480 139.0030 237° Southwest 407 468 32,000  Level FlightAware
10:55PM -21.0127 138.8906 58° Northeast 34,000  Climbing Aus ATC (Calculated)
10:55PM -20.9820 138.9440 238° Southwest 406 467 32,000 -2,640 Descending FlightAware
10:56PM -21.0160 138.8860 238° Southwest 406 467 32,000  Level FlightAware
10:57PM -21.0510 138.8240 239° Southwest 406 467 32,000  Level FlightAware
10:57PM -21.0870 138.7640 237° Southwest 406 467 32,000  Level FlightAware
10:58PM -21.1220 138.7030 238° Southwest 406 467 32,000  Level FlightAware
10:58PM -21.1540 138.6470 238° Southwest 406 467 32,000  Level FlightAware
10:59PM -21.1900 138.5860 238° Southwest 406 467 32,000  Level FlightAware
11:00PM -21.2260 138.5240 238° Southwest 406 467 32,000  Level FlightAware
11:00PM -21.2640 138.4570 239° Southwest 406 467 32,000  Level FlightAware
11:00PM -21.3300 138.3426 58° Northeast 34,000  Climbing Aus ATC (Calculated)
11:01PM -21.3010 138.3930 238° Southwest 406 467 32,000 -1,740 Descending FlightAware
11:01PM -21.3360 138.3320 238° Southwest 405 466 32,000  Level FlightAware
11:02PM -21.3710 138.2710 238° Southwest 405 466 32,000  Level FlightAware
11:03PM -21.4030 138.2160 238° Southwest 405 466 32,000  Level FlightAware
11:03PM -21.4736 138.0927 58° Northeast 34,000  Climbing Aus ATC (Calculated)
11:03PM -21.4380 138.1550 238° Southwest 406 467 32,000 -1,800 Descending FlightAware
11:04PM -21.5310 137.9926 58° Northeast 34,000  Climbing Aus ATC (Calculated)
11:04PM -21.4690 138.1010 238° Southwest 406 467 32,000 -2,700 Descending FlightAware
11:04PM -21.5070 138.0340 239° Southwest 406 467 32,000  Level FlightAware
11:05PM -21.5430 137.9720 238° Southwest 406 467 32,000  Level FlightAware
11:05PM -21.5780 137.9120 238° Southwest 407 468 32,000  Level FlightAware
11:06PM -21.6329 137.8143 59° Northeast 34,000  Climbing Aus ATC (Calculated)
11:06PM -21.6120 137.8520 238° Southwest 406 467 32,000 -2,160 Descending FlightAware
11:07PM -21.6470 137.7890 239° Southwest 407 468 32,000  Level FlightAware
11:07PM -21.6870 137.7200 238° Southwest 407 468 32,000  Level FlightAware
11:08PM -21.7180 137.6670 238° Southwest 407 468 32,000  Level FlightAware
11:09PM -21.7480 137.6150 238° Southwest 407 468 32,000  Level FlightAware
11:09PM -21.7790 137.5620 238° Southwest 407 468 32,000  Level FlightAware
11:10PM -21.8090 137.5100 238° Southwest 407 468 32,000  Level FlightAware
11:10PM -21.8400 137.4570 238° Southwest 407 468 32,000  Level FlightAware
11:11PM -21.8997 137.3440 62° Northeast 34,000  Climbing Aus ATC (Calculated)
11:11PM -21.8650 137.4130 238° Southwest 407 468 32,000 -2,280 Descending FlightAware
11:11PM -21.8960 137.3600 238° Southwest 407 468 32,000  Level FlightAware
11:12PM -21.9260 137.3080 238° Southwest 407 468 32,000  Level FlightAware
11:13PM -21.9570 137.2550 238° Southwest 407 468 32,000  Level FlightAware
11:13PM -21.9870 137.2020 239° Southwest 407 468 32,000  Level FlightAware
11:14PM -22.0190 137.1480 237° Southwest 407 468 32,000  Level FlightAware
11:15PM -22.0490 137.0950 239° Southwest 407 468 32,000  Level FlightAware
11:15PM -22.1651 136.8721 62° Northeast 34,000  Climbing Aus ATC (Calculated)
11:15PM -22.0810 137.0410 237° Southwest 407 468 32,000 -2,040 Descending FlightAware
11:16PM -22.2093 136.7932 61° Northeast 34,000  Climbing Aus ATC (Calculated)
11:16PM -22.1110 136.9880 237° Southwest 407 468 32,000 -2,580 Descending FlightAware
11:16PM -22.1420 136.9360 237° Southwest 407 468 32,000  Level FlightAware
11:17PM -22.2533 136.7143 63° Northeast 34,000  Climbing Aus ATC (Calculated)
11:17PM -22.1720 136.8830 237° Southwest 407 468 32,000 -960 Descending FlightAware
11:17PM -22.2533 136.7143 239° Southwest 34,000  Climbing Aus ATC (Calculated)
11:18PM -22.3255 136.5848 239° Southwest 34,000 -1,140 Level Aus ATC (Calculated)
11:19PM -22.3537 136.5342 238° Southwest 34,000 -2,160 Level Aus ATC (Calculated)
11:19PM -22.3550 136.5320 237° Southwest 408 470 32,000 -2,580 Descending FlightAware
11:19PM -22.3819 136.4836 240° Southwest 34,000  Climbing Aus ATC (Calculated)
11:19PM -22.3870 136.4740 237° Southwest 408 470 32,000 -2,820 Descending FlightAware
11:20PM -22.4230 136.4110 238° Southwest 407 468 32,000  Level FlightAware
11:21PM -22.4610 136.3410 240° Southwest 408 470 32,000  Level FlightAware
11:21PM -22.4930 136.2840 239° Southwest 408 470 32,000  Level FlightAware
11:22PM -22.5330 136.2100 240° Southwest 408 470 32,000  Level FlightAware
11:22PM -22.5690 136.1470 238° Southwest 408 470 32,000  Level FlightAware
11:23PM -22.5784 136.1288 239° Southwest 34,000  Climbing Aus ATC (Calculated)
11:23PM -22.6020 136.0870 238° Southwest 409 471 32,000 -2,580 Descending FlightAware
11:24PM -22.6340 136.0270 240° Southwest 409 471 32,000  Level FlightAware
11:24PM -22.6710 135.9610 239° Southwest 409 471 32,000  Level FlightAware
11:24PM -22.6904 135.9255 239° Southwest 34,000  Climbing Aus ATC (Calculated)
11:25PM -22.7030 135.9030 239° Southwest 410 472 32,000 -2,220 Descending FlightAware
11:25PM -22.7360 135.8430 239° Southwest 409 471 32,000  Level FlightAware
11:25PM -22.7463 135.8238 239° Southwest 34,000  Climbing Aus ATC (Calculated)
11:26PM -22.7720 135.7770 239° Southwest 409 471 32,000 -2,160 Descending FlightAware
11:26PM -22.8050 135.7180 239° Southwest 409 471 32,000  Level FlightAware
11:27PM -22.8390 135.6540 240° Southwest 409 471 32,000  Level FlightAware
11:28PM -22.8740 135.5910 239° Southwest 409 471 32,000  Level FlightAware
11:28PM -22.8784 135.5822 239° Southwest 800  Descending Aus ATC (Calculated)
11:28PM -22.8784 135.5822 239° Southwest 800 103,980 Level Aus ATC (Calculated)
11:28PM -22.9020 135.5390 239° Southwest 409 471 32,000 36,000 Climbing FlightAware
11:29PM -22.9400 135.4690 239° Southwest 409 471 32,000  Level FlightAware
11:29PM -22.9760 135.4150 234° Southwest 411 473 32,000  Level FlightAware
11:30PM -22.9773 135.4008 227° Southwest 800  Descending Aus ATC (Calculated)
11:30PM -23.0210 135.3500 233° Southwest 410 472 32,000 49,260 Climbing FlightAware
11:31PM -23.0570 135.2960 233° Southwest 405 466 32,000 -120 Level FlightAware
11:31PM -23.0102 135.3402 227° Southwest 800 -180 Descending Aus ATC (Calculated)
11:31PM -23.0970 135.2390 233° Southwest 405 466 31,900 46,920 Climbing FlightAware
11:31PM -23.0430 135.2796 224° Southwest 800 -1,080 Descending Aus ATC (Calculated)
11:32PM -23.1380 135.1800 233° Southwest 403 464 31,300 27,780 Climbing FlightAware
11:32PM -23.1760 135.1260 233° Southwest 401 461 30,000 -2,640 Descending FlightAware
11:33PM -23.2140 135.0700 234° Southwest 418 481 28,300 -3,180 Descending FlightAware
11:33PM -23.1415 135.0977 216° Southwest 800 -3,300 Descending Aus ATC (Calculated)
11:33PM -23.2570 135.0060 234° Southwest 416 479 26,300 26,040 Climbing FlightAware
11:34PM -23.2970 134.9490 234° Southwest 418 481 24,700 -2,880 Descending FlightAware
11:35PM -23.3370 134.8920 233° Southwest 422 486 23,100 -2,940 Descending FlightAware
11:35PM -23.3770 134.8320 234° Southwest 413 475 21,400 -2,760 Descending FlightAware
11:35PM -23.2398 134.9156 216° Southwest 800 -2,580 Descending Aus ATC (Calculated)
11:36PM -23.4160 134.7760 234° Southwest 397 457 19,900 16,380 Climbing FlightAware
11:36PM -23.2725 134.8548 214° Southwest 800 -2,340 Descending Aus ATC (Calculated)
11:36PM -23.2725 134.8548 214° Southwest 800 41,040 Level Aus ATC (Calculated)
11:36PM -23.4530 134.7220 234° Southwest 382 440 18,600 20,340 Climbing FlightAware
11:37PM -23.4910 134.6660 234° Southwest 368 423 17,100 -2,460 Descending FlightAware
11:38PM -23.5270 134.6140 233° Southwest 358 412 15,700 -2,340 Descending FlightAware
11:38PM -23.5620 134.5620 234° Southwest 352 405 14,300 -2,340 Descending FlightAware
11:39PM -23.5920 134.5180 233° Southwest 351 404 13,100 -2,340 Descending FlightAware
11:39PM -23.4357 134.5504 202° Southwest 800 -2,340 Descending Aus ATC (Calculated)
11:39PM -23.6270 134.4670 233° Southwest 346 398 11,700 13,560 Climbing FlightAware
11:40PM -23.6610 134.4180 233° Southwest 313 360 11,000 -960 Descending FlightAware
11:40PM -23.4683 134.4895 205° Southwest 800 -660 Descending Aus ATC (Calculated)
11:40PM -23.6910 134.3740 233° Southwest 292 336 10,600 10,260 Climbing FlightAware
11:41PM -23.7160 134.3370 233° Southwest 290 334 9,900 -1,560 Descending FlightAware
11:41PM -23.7360 134.3080 233° Southwest 289 333 9,200 -1,680 Descending FlightAware
11:42PM -23.5334 134.3675 199° South 800 -1,500 Descending Aus ATC (Calculated)
11:42PM -23.7510 134.2840 233° Southwest 283 326 8,700 14,100 Climbing FlightAware
11:42PM -23.5659 134.3064 191° South 800 -1,800 Descending Aus ATC (Calculated)
11:42PM -23.7670 134.2620 232° Southwest 284 327 8,100 22,980 Climbing FlightAware
11:42PM -23.7790 134.2430 232° Southwest 283 326 7,700 -1,500 Descending FlightAware
11:43PM -23.7950 134.2200 233° Southwest 279 321 7,200 -1,680 Descending FlightAware
11:43PM -23.8090 134.1990 234° Southwest 273 314 6,600 -1,500 Descending FlightAware
11:43PM -23.8250 134.1760 233° Southwest 268 308 6,200 -1,200 Descending FlightAware
11:44PM -23.8420 134.1510 233° Southwest 259 298 5,700 -1,140 Descending FlightAware
11:44PM -23.8520 134.1360 234° Southwest 246 283 5,500 -780 Descending FlightAware
11:44PM -23.8640 134.1170 235° Southwest 232 267 5,300 -600 Descending FlightAware
11:45PM -23.8770 134.0980 233° Southwest 226 260 5,100 -780 Descending FlightAware
11:45PM -23.8880 134.0790 238° Southwest 222 255 4,800 -900 Descending FlightAware
11:45PM -23.7280 134.0007 159° South 800 -900 Descending Aus ATC (Calculated)
11:45PM -23.8900 134.0700 256° West 216 249 4,700 18,960 Climbing FlightAware
11:45PM -23.8890 134.0620 278° West 215 247 4,600 -780 Descending FlightAware
11:45PM -23.8860 134.0540 292° West 212 244 4,500 -600 Descending FlightAware
11:46PM -23.8800 134.0430 301° West 199 229 4,400 -600 Descending FlightAware
11:46PM -23.7604 133.9395 144° Southeast 800 -600 Descending Aus ATC (Calculated)
11:46PM -23.8710 134.0260 301° West 194 223 4,200 6,420 Climbing FlightAware
11:46PM -23.8610 134.0060 301° West 171 197 3,700 -1,080 Descending FlightAware
11:47PM -23.8540 133.9930 300° West 141 162 3,400 -780 Descending FlightAware
11:47PM -23.8470 133.9810 303° West 145 167 3,200 -780 Descending FlightAware
11:47PM -23.8410 133.9690 299° West 139 160 2,900 -840 Descending FlightAware
11:48PM -23.8330 133.9540 300° West 138 159 2,600 -720 Descending FlightAware
11:48PM -23.8270 133.9420 299° West 138 159 2,400 -600 Descending FlightAware
11:48PM -23.8200 133.9290 300° West 139 160 2,200 -720 Descending FlightAware
11:49PM -23.8120 133.9140 300° West 149 171 1,900 -720 Descending FlightAware
11:49PM -23.8060 133.9020 299° West 105 121 -5,700 Descending FlightAware